Time;durP1;ratioP1;P1;durP2;ratioP2;P2;SDS_P1;SDS_P2;PMS_P1;PMS_P2;Temp;Humidity;BMP_temperature;BMP_pressure;BME280_temperature;BME280_humidity;BME280_pressure;Samples;Min_cycle;Max_cycle;Signal;HPM_P1;HPM_P2
2023/12/08 00:01:50;;;;;;;21.65;14.95;;;1.70;99.90;;;;;;5085008;28;20257;-44
2023/12/08 00:04:16;;;;;;;22.38;15.82;;;1.70;99.90;;;;;;5081574;28;20048;-43
2023/12/08 00:06:41;;;;;;;22.52;15.38;;;1.70;99.90;;;;;;5081090;28;20139;-45
2023/12/08 00:09:07;;;;;;;21.50;15.52;;;1.70;99.90;;;;;;5081789;28;20055;-45
2023/12/08 00:11:32;;;;;;;21.92;15.38;;;1.70;99.90;;;;;;5079960;28;20139;-44
2023/12/08 00:13:58;;;;;;;22.35;15.40;;;1.70;99.90;;;;;;5080802;28;20058;-44
2023/12/08 00:16:24;;;;;;;20.05;14.40;;;1.70;99.90;;;;;;5082293;28;20060;-45
2023/12/08 00:18:50;;;;;;;23.65;15.57;;;1.70;99.90;;;;;;5082157;28;20477;-44
2023/12/08 00:21:16;;;;;;;19.73;14.40;;;1.70;99.90;;;;;;5081621;28;20127;-44
2023/12/08 00:23:41;;;;;;;21.73;14.63;;;1.70;99.90;;;;;;5066496;28;20049;-43
2023/12/08 00:26:07;;;;;;;19.65;15.90;;;1.70;99.90;;;;;;5081710;28;20093;-44
2023/12/08 00:28:33;;;;;;;23.48;16.38;;;1.70;99.90;;;;;;5081057;28;20366;-45
2023/12/08 00:30:58;;;;;;;23.02;14.18;;;1.70;99.90;;;;;;5078655;28;20071;-43
2023/12/08 00:33:25;;;;;;;22.88;16.67;;;1.70;99.90;;;;;;5070458;28;20083;-44
2023/12/08 00:35:50;;;;;;;22.85;16.45;;;1.60;99.90;;;;;;5088600;28;20091;-45
2023/12/08 00:38:16;;;;;;;24.70;15.55;;;1.70;99.90;;;;;;5082980;28;20148;-43
2023/12/08 00:40:42;;;;;;;23.90;16.98;;;1.70;99.90;;;;;;5088710;28;20036;-45
2023/12/08 00:43:07;;;;;;;19.48;14.57;;;1.60;99.90;;;;;;5083287;28;20036;-43
2023/12/08 00:45:33;;;;;;;22.25;14.88;;;1.60;99.90;;;;;;5088908;28;20044;-45
2023/12/08 00:47:58;;;;;;;22.45;14.93;;;1.60;99.90;;;;;;5087380;28;20041;-45
2023/12/08 00:50:24;;;;;;;23.73;16.25;;;1.60;99.90;;;;;;5089070;28;20036;-43
2023/12/08 00:52:49;;;;;;;23.35;16.05;;;1.60;99.90;;;;;;5086840;28;20032;-44
2023/12/08 00:55:15;;;;;;;23.98;17.02;;;1.60;99.90;;;;;;5085895;28;20559;-44
2023/12/08 00:57:41;;;;;;;27.40;17.77;;;1.60;99.90;;;;;;5085983;28;20394;-44
2023/12/08 01:00:07;;;;;;;25.38;19.38;;;1.60;99.90;;;;;;5084704;28;20040;-43
2023/12/08 01:02:33;;;;;;;24.25;18.10;;;1.60;99.90;;;;;;5088232;28;20036;-44
2023/12/08 01:04:58;;;;;;;25.27;18.27;;;1.60;99.90;;;;;;5088324;28;20118;-44
2023/12/08 01:07:24;;;;;;;24.50;17.73;;;1.60;99.90;;;;;;5091149;28;20067;-44
2023/12/08 01:09:49;;;;;;;26.48;18.02;;;1.50;99.90;;;;;;5086387;28;20051;-44
2023/12/08 01:12:15;;;;;;;26.38;18.95;;;1.50;99.90;;;;;;5083954;28;20327;-45
2023/12/08 01:14:41;;;;;;;22.20;16.10;;;1.60;99.90;;;;;;5086175;28;20033;-44
2023/12/08 01:17:06;;;;;;;25.75;18.10;;;1.50;99.90;;;;;;5069955;28;20131;-44
2023/12/08 01:19:32;;;;;;;23.73;17.33;;;1.50;99.90;;;;;;5087254;28;20040;-44
2023/12/08 01:21:58;;;;;;;23.85;17.90;;;1.60;99.90;;;;;;5085324;28;20044;-46
2023/12/08 01:24:24;;;;;;;28.33;18.75;;;1.60;99.90;;;;;;5091004;28;20063;-44
2023/12/08 01:26:49;;;;;;;27.80;18.25;;;1.50;99.90;;;;;;5089372;28;20029;-44
2023/12/08 01:29:15;;;;;;;23.42;17.55;;;1.50;99.90;;;;;;5092099;28;20101;-43
2023/12/08 01:31:40;;;;;;;24.05;18.15;;;1.50;99.90;;;;;;5089208;28;20503;-45
2023/12/08 01:34:06;;;;;;;26.25;17.80;;;1.50;99.90;;;;;;5089045;28;20473;-43
2023/12/08 01:36:32;;;;;;;24.25;18.35;;;1.50;99.90;;;;;;5090341;28;20032;-44
2023/12/08 01:38:58;;;;;;;24.75;18.17;;;1.50;99.90;;;;;;5086861;28;20040;-44
2023/12/08 01:41:24;;;;;;;23.95;17.38;;;1.50;99.90;;;;;;5089745;28;20139;-44
2023/12/08 01:43:49;;;;;;;25.05;18.45;;;1.50;99.90;;;;;;5089351;28;20040;-44
2023/12/08 01:46:19;;;;;;;23.02;16.65;;;1.50;99.90;;;;;;5091285;28;20115;-44
2023/12/08 01:48:46;;;;;;;21.48;16.63;;;1.50;99.90;;;;;;5091551;28;20040;-45
2023/12/08 01:51:13;;;;;;;22.02;17.38;;;1.50;99.90;;;;;;5088780;28;20032;-44
2023/12/08 01:53:40;;;;;;;25.00;18.00;;;1.50;99.90;;;;;;5085911;28;20357;-45
2023/12/08 01:56:08;;;;;;;24.70;17.48;;;1.50;99.90;;;;;;5089403;28;20131;-45
2023/12/08 01:58:34;;;;;;;24.25;17.27;;;1.50;99.90;;;;;;5091193;28;20028;-43
2023/12/08 02:01:06;;;;;;;21.55;16.17;;;1.50;99.90;;;;;;5087777;28;20044;-45
2023/12/08 02:03:35;;;;;;;21.05;17.10;;;1.50;99.90;;;;;;5089687;28;20032;-44
2023/12/08 02:06:01;;;;;;;22.98;16.77;;;1.50;99.90;;;;;;5090298;28;20073;-44
2023/12/08 02:08:27;;;;;;;23.27;17.15;;;1.50;99.90;;;;;;5090604;28;20089;-44
2023/12/08 02:10:53;;;;;;;22.25;17.52;;;1.50;99.90;;;;;;5092608;28;20069;-44
2023/12/08 02:13:20;;;;;;;22.77;17.23;;;1.50;99.90;;;;;;5092870;28;20085;-45
2023/12/08 02:15:49;;;;;;;22.98;17.42;;;1.50;99.90;;;;;;5089186;28;20036;-44
2023/12/08 02:18:14;;;;;;;23.20;17.23;;;1.50;99.90;;;;;;5089024;28;20072;-44
2023/12/08 02:20:42;;;;;;;22.90;16.40;;;1.50;99.90;;;;;;5090570;28;20461;-44
2023/12/08 02:23:07;;;;;;;23.80;17.25;;;1.50;99.90;;;;;;5085987;28;20036;-44
2023/12/08 02:25:34;;;;;;;21.95;16.83;;;1.50;99.90;;;;;;5086863;28;20089;-45
2023/12/08 02:28:04;;;;;;;21.40;18.25;;;1.40;99.90;;;;;;5087430;28;20036;-45
2023/12/08 02:30:29;;;;;;;20.63;17.05;;;1.40;99.90;;;;;;5089987;28;20044;-44
2023/12/08 02:33:22;;;;;;;22.55;16.13;;;1.50;99.90;;;;;;5089382;28;20390;-44
2023/12/08 02:35:48;;;;;;;22.88;16.42;;;1.40;99.90;;;;;;5079786;28;20048;-45
2023/12/08 02:38:19;;;;;;;21.70;16.35;;;1.50;99.90;;;;;;5085936;28;20374;-45
2023/12/08 02:40:45;;;;;;;22.67;17.52;;;1.50;99.90;;;;;;5091217;28;20043;-45
2023/12/08 02:43:10;;;;;;;19.35;14.25;;;1.50;99.90;;;;;;5087580;28;20048;-45
2023/12/08 02:45:36;;;;;;;21.55;16.08;;;1.40;99.90;;;;;;5089228;28;20173;-46
2023/12/08 02:48:02;;;;;;;22.80;17.42;;;1.50;99.90;;;;;;5088243;28;20063;-45
2023/12/08 02:50:27;;;;;;;24.75;18.40;;;1.50;99.90;;;;;;5091520;28;20489;-45
2023/12/08 02:52:53;;;;;;;23.58;17.75;;;1.50;99.90;;;;;;5092882;28;20342;-47
2023/12/08 02:55:18;;;;;;;22.73;17.10;;;1.50;99.90;;;;;;5088024;28;20041;-46
2023/12/08 02:57:44;;;;;;;22.15;16.85;;;1.50;99.90;;;;;;5090690;28;20032;-46
2023/12/08 03:00:10;;;;;;;22.42;16.30;;;1.50;99.90;;;;;;5085201;28;20108;-45
2023/12/08 03:02:36;;;;;;;20.10;17.05;;;1.50;99.90;;;;;;5086001;28;20047;-46
2023/12/08 03:05:02;;;;;;;23.55;17.27;;;1.50;99.90;;;;;;5088794;28;20040;-44
2023/12/08 03:07:28;;;;;;;24.48;17.02;;;1.50;99.90;;;;;;5089647;28;20088;-44
2023/12/08 03:09:54;;;;;;;22.05;17.35;;;1.60;99.90;;;;;;5086517;28;20131;-47
2023/12/08 03:12:20;;;;;;;22.25;18.00;;;1.50;99.90;;;;;;5086657;28;20355;-46
2023/12/08 03:14:45;;;;;;;24.73;17.23;;;1.50;99.90;;;;;;5085786;28;20141;-44
2023/12/08 03:17:11;;;;;;;21.10;16.27;;;1.50;99.90;;;;;;5088300;28;20040;-45
2023/12/08 03:19:37;;;;;;;24.42;17.13;;;1.50;99.90;;;;;;5088984;28;20036;-45
2023/12/08 03:22:02;;;;;;;24.38;17.42;;;1.50;99.90;;;;;;5087034;28;20048;-45
2023/12/08 03:24:28;;;;;;;23.85;17.73;;;1.50;99.90;;;;;;5088585;28;20051;-44
2023/12/08 03:26:53;;;;;;;25.55;16.08;;;1.40;99.90;;;;;;5085744;28;20162;-43
2023/12/08 03:29:19;;;;;;;22.02;16.63;;;1.30;99.90;;;;;;5087824;28;20040;-43
2023/12/08 03:31:45;;;;;;;24.35;18.48;;;1.30;99.90;;;;;;5088223;28;20184;-44
2023/12/08 03:34:11;;;;;;;24.98;17.90;;;;;;;;;;5083800;28;20058;-44
2023/12/08 03:36:36;;;;;;;24.48;17.98;;;1.20;99.90;;;;;;5052388;28;20047;-44
2023/12/08 03:39:02;;;;;;;25.73;17.92;;;1.20;99.90;;;;;;5088559;28;20435;-43
2023/12/08 03:41:28;;;;;;;24.10;16.88;;;1.20;99.90;;;;;;5089191;28;20125;-44
2023/12/08 03:43:53;;;;;;;24.10;18.20;;;1.20;99.90;;;;;;5082703;28;20059;-43
2023/12/08 03:46:19;;;;;;;27.38;18.33;;;1.10;99.90;;;;;;5085865;28;20070;-43
2023/12/08 03:48:44;;;;;;;27.58;19.20;;;1.20;99.90;;;;;;5088184;28;20042;-43
2023/12/08 03:51:10;;;;;;;28.55;19.17;;;1.20;99.90;;;;;;5090031;28;20032;-45
2023/12/08 03:53:36;;;;;;;25.85;18.85;;;1.10;99.90;;;;;;5089884;28;20039;-44
2023/12/08 03:56:02;;;;;;;26.95;19.67;;;1.10;99.90;;;;;;5086162;28;20353;-44
2023/12/08 03:58:28;;;;;;;27.77;18.30;;;1.10;99.90;;;;;;5085684;28;20047;-43
2023/12/08 04:00:54;;;;;;;26.48;19.02;;;1.10;99.90;;;;;;5082456;28;20036;-44
2023/12/08 04:03:20;;;;;;;25.98;17.88;;;1.10;99.90;;;;;;5089349;28;20089;-45
2023/12/08 04:05:46;;;;;;;25.85;17.90;;;1.10;99.90;;;;;;5085971;28;20077;-44
2023/12/08 04:08:11;;;;;;;28.00;18.30;;;1.10;99.90;;;;;;5085076;28;20048;-44
2023/12/08 04:10:37;;;;;;;24.98;18.35;;;1.10;99.90;;;;;;5086351;28;20090;-44
2023/12/08 04:13:03;;;;;;;25.77;18.92;;;1.10;99.90;;;;;;5070179;28;20104;-44
2023/12/08 04:15:28;;;;;;;26.23;18.80;;;1.10;99.90;;;;;;5087343;28;20466;-43
2023/12/08 04:17:54;;;;;;;27.27;18.67;;;1.10;99.90;;;;;;5085067;28;20480;-45
2023/12/08 04:20:19;;;;;;;21.10;13.40;;;1.10;99.90;;;;;;5089174;28;20128;-44
2023/12/08 04:22:45;;;;;;;25.95;18.63;;;1.10;99.90;;;;;;5085044;28;20547;-44
2023/12/08 04:25:12;;;;;;;28.45;18.75;;;;;;;;;;5074039;28;20427;-44
2023/12/08 04:27:38;;;;;;;25.85;17.00;;;1.00;99.90;;;;;;5089473;28;20047;-45
2023/12/08 04:30:04;;;;;;;24.95;16.90;;;1.10;99.90;;;;;;5082267;28;20049;-45
2023/12/08 04:32:30;;;;;;;28.75;19.63;;;1.10;99.90;;;;;;5081803;28;20035;-44
2023/12/08 04:34:55;;;;;;;25.75;18.75;;;1.00;99.90;;;;;;5088595;28;20047;-43
2023/12/08 04:37:21;;;;;;;27.25;18.75;;;1.00;99.90;;;;;;5086054;28;20059;-43
2023/12/08 04:39:46;;;;;;;26.58;17.77;;;1.00;99.90;;;;;;5086230;28;20100;-45
2023/12/08 04:42:12;;;;;;;25.95;18.23;;;1.00;99.90;;;;;;5084864;28;20046;-45
2023/12/08 04:44:37;;;;;;;22.13;17.05;;;1.00;99.90;;;;;;5088970;28;20036;-44
2023/12/08 04:47:03;;;;;;;22.90;15.85;;;1.00;99.90;;;;;;5088877;28;20036;-44
2023/12/08 04:49:29;;;;;;;24.83;16.95;;;1.00;99.90;;;;;;5083890;28;20040;-44
2023/12/08 04:51:54;;;;;;;27.40;19.95;;;1.00;99.90;;;;;;5085378;28;20100;-44
2023/12/08 04:54:20;;;;;;;25.38;16.15;;;1.00;99.90;;;;;;5087999;28;20138;-45
2023/12/08 04:56:45;;;;;;;26.83;19.08;;;1.00;99.90;;;;;;5088532;28;20036;-43
2023/12/08 04:59:11;;;;;;;28.48;18.55;;;1.00;99.90;;;;;;5087774;28;20036;-44
2023/12/08 05:01:37;;;;;;;28.70;20.25;;;1.00;99.90;;;;;;5091733;28;20048;-45
2023/12/08 05:04:03;;;;;;;24.40;18.20;;;1.00;99.90;;;;;;5089526;28;20032;-44
2023/12/08 05:06:29;;;;;;;25.23;17.08;;;0.90;99.90;;;;;;5088439;28;20115;-44
2023/12/08 05:08:55;;;;;;;27.23;19.27;;;0.90;99.90;;;;;;5093585;28;20031;-45
2023/12/08 05:11:20;;;;;;;28.15;19.35;;;1.00;99.90;;;;;;5090929;28;20413;-44
2023/12/08 05:13:46;;;;;;;28.83;20.27;;;1.00;99.90;;;;;;5091185;28;20047;-44
2023/12/08 05:16:11;;;;;;;25.80;17.73;;;1.00;99.90;;;;;;5090533;28;20087;-44
2023/12/08 05:18:37;;;;;;;31.30;21.73;;;0.90;99.90;;;;;;5090595;28;20040;-44
2023/12/08 05:21:03;;;;;;;29.02;20.67;;;1.00;99.90;;;;;;5091444;28;20044;-43
2023/12/08 05:23:29;;;;;;;29.88;19.27;;;0.90;99.90;;;;;;5090882;28;20845;-44
2023/12/08 05:25:54;;;;;;;31.05;20.33;;;0.90;99.90;;;;;;5088442;28;20112;-45
2023/12/08 05:28:20;;;;;;;29.67;21.52;;;0.90;99.90;;;;;;5089667;28;20111;-45
2023/12/08 05:30:46;;;;;;;29.73;19.13;;;0.90;99.90;;;;;;5094340;28;20048;-45
2023/12/08 05:33:11;;;;;;;29.75;20.77;;;0.90;99.90;;;;;;5088421;28;20253;-46
2023/12/08 05:35:37;;;;;;;30.75;19.40;;;0.90;99.90;;;;;;5086508;28;20036;-44
2023/12/08 05:38:03;;;;;;;25.10;15.18;;;0.90;99.90;;;;;;5089788;28;20040;-44
2023/12/08 05:40:28;;;;;;;30.92;20.45;;;0.90;99.90;;;;;;5090272;28;20114;-45
2023/12/08 05:42:54;;;;;;;28.58;20.13;;;0.90;99.90;;;;;;5091854;28;20067;-45
2023/12/08 05:45:19;;;;;;;31.85;21.40;;;1.00;99.90;;;;;;5092384;28;20126;-44
2023/12/08 05:47:45;;;;;;;32.05;21.52;;;0.90;99.90;;;;;;5090603;28;20047;-44
2023/12/08 05:50:11;;;;;;;33.15;20.92;;;0.90;99.90;;;;;;5092086;28;21271;-45
2023/12/08 05:52:36;;;;;;;34.63;22.10;;;0.90;99.90;;;;;;5093528;28;20115;-45
2023/12/08 05:55:02;;;;;;;31.70;21.23;;;0.90;99.90;;;;;;5093247;28;20108;-44
2023/12/08 05:57:28;;;;;;;33.75;20.52;;;0.90;99.90;;;;;;5093680;28;20449;-44
2023/12/08 05:59:54;;;;;;;34.67;22.45;;;0.90;99.90;;;;;;5092788;28;20040;-46
2023/12/08 06:02:20;;;;;;;38.88;24.20;;;0.90;99.90;;;;;;5093161;28;20044;-44
2023/12/08 06:04:46;;;;;;;38.08;22.23;;;0.90;99.90;;;;;;5083672;28;20052;-45
2023/12/08 06:07:12;;;;;;;35.80;23.55;;;0.90;99.90;;;;;;5093129;28;20048;-47
2023/12/08 06:09:37;;;;;;;38.20;23.83;;;0.80;99.90;;;;;;5091711;28;20055;-45
2023/12/08 06:12:03;;;;;;;40.95;23.48;;;0.80;99.90;;;;;;5092730;28;20152;-45
2023/12/08 06:14:29;;;;;;;34.20;21.15;;;0.90;99.90;;;;;;5092558;28;20416;-45
2023/12/08 06:16:54;;;;;;;35.88;22.17;;;0.90;99.90;;;;;;5092187;28;20032;-45
2023/12/08 06:19:20;;;;;;;35.17;22.52;;;0.90;99.90;;;;;;5091999;28;20475;-46
2023/12/08 06:21:45;;;;;;;38.65;24.27;;;0.80;99.90;;;;;;5089402;28;20492;-45
2023/12/08 06:24:11;;;;;;;37.85;22.70;;;0.90;99.90;;;;;;5092656;28;20043;-45
2023/12/08 06:26:38;;;;;;;35.67;22.70;;;0.90;99.90;;;;;;5092627;28;20131;-45
2023/12/08 06:29:04;;;;;;;37.63;22.88;;;0.90;99.90;;;;;;5093329;28;20093;-45
2023/12/08 06:31:30;;;;;;;37.95;22.58;;;0.90;99.90;;;;;;5092756;28;20040;-47
2023/12/08 06:33:56;;;;;;;39.50;23.17;;;0.90;99.90;;;;;;5090274;28;20044;-44
2023/12/08 06:36:21;;;;;;;34.40;22.45;;;0.90;99.90;;;;;;5089359;28;20488;-45
2023/12/08 06:38:47;;;;;;;36.83;23.00;;;0.90;99.90;;;;;;5092140;28;20040;-47
2023/12/08 06:41:13;;;;;;;33.85;21.70;;;0.90;99.90;;;;;;5092246;28;20438;-44
2023/12/08 06:43:38;;;;;;;35.88;22.60;;;0.90;99.90;;;;;;5092709;28;20078;-44
2023/12/08 06:46:04;;;;;;;33.45;22.75;;;0.90;99.90;;;;;;5092268;28;20039;-45
2023/12/08 06:48:30;;;;;;;35.15;22.02;;;0.90;99.90;;;;;;5092439;28;20043;-45
2023/12/08 06:50:55;;;;;;;33.80;21.98;;;0.90;99.90;;;;;;5090704;28;20494;-44
2023/12/08 06:53:21;;;;;;;32.42;21.35;;;0.90;99.90;;;;;;5089936;28;20040;-45
2023/12/08 06:55:47;;;;;;;35.60;21.38;;;0.90;99.90;;;;;;5091595;28;20541;-44
2023/12/08 06:58:13;;;;;;;35.28;22.30;;;0.90;99.90;;;;;;5090925;28;20040;-44
2023/12/08 07:00:38;;;;;;;37.70;21.95;;;0.90;99.90;;;;;;5088023;28;20146;-46
2023/12/08 07:03:05;;;;;;;35.78;23.58;;;0.90;99.90;;;;;;5086807;28;20880;-43
2023/12/08 07:05:31;;;;;;;37.88;23.70;;;0.90;99.90;;;;;;5086584;28;20046;-46
2023/12/08 07:07:57;;;;;;;37.58;25.13;;;0.90;99.90;;;;;;5089763;28;20048;-44
2023/12/08 07:10:23;;;;;;;35.40;22.58;;;0.90;99.90;;;;;;5076761;28;20052;-46
2023/12/08 07:12:48;;;;;;;38.80;24.85;;;0.90;99.90;;;;;;5088231;28;20079;-45
2023/12/08 07:15:14;;;;;;;33.08;22.15;;;0.90;99.90;;;;;;5087984;28;20039;-45
2023/12/08 07:17:40;;;;;;;36.58;22.65;;;1.00;99.90;;;;;;5088728;28;20106;-48
2023/12/08 07:20:09;;;;;;;37.25;23.65;;;0.90;99.90;;;;;;5090210;28;20186;-45
2023/12/08 07:22:35;;;;;;;32.83;22.50;;;1.00;99.90;;;;;;5086731;28;20050;-46
2023/12/08 07:25:03;;;;;;;34.75;21.55;;;1.00;99.90;;;;;;5088154;28;20047;-48
2023/12/08 07:27:28;;;;;;;36.80;23.00;;;1.00;99.90;;;;;;5089292;28;20115;-44
2023/12/08 07:29:54;;;;;;;34.10;21.48;;;1.10;99.90;;;;;;5084333;28;20143;-46
2023/12/08 07:32:19;;;;;;;35.88;22.38;;;1.10;99.90;;;;;;5087575;28;20105;-46
2023/12/08 07:34:45;;;;;;;35.65;22.15;;;1.10;99.90;;;;;;5089980;28;20040;-47
2023/12/08 07:37:10;;;;;;;33.17;20.90;;;1.10;99.90;;;;;;5085901;28;20393;-47
2023/12/08 07:39:36;;;;;;;34.50;22.70;;;1.10;99.90;;;;;;5088448;28;20214;-46
2023/12/08 07:42:02;;;;;;;32.58;21.75;;;1.00;99.90;;;;;;5085012;28;20065;-45
2023/12/08 07:44:28;;;;;;;37.15;23.30;;;1.10;99.90;;;;;;5085653;28;20056;-45
2023/12/08 07:46:54;;;;;;;34.30;22.77;;;1.10;99.90;;;;;;5085060;28;20039;-46
2023/12/08 07:49:19;;;;;;;36.00;22.67;;;1.10;99.90;;;;;;5085913;28;20067;-46
2023/12/08 07:51:45;;;;;;;38.42;23.52;;;1.10;99.90;;;;;;5087816;28;20032;-45
2023/12/08 07:54:11;;;;;;;38.10;23.60;;;1.10;99.90;;;;;;5089203;28;20338;-49
2023/12/08 07:56:36;;;;;;;38.28;22.80;;;1.10;99.90;;;;;;5089884;28;20583;-46
2023/12/08 07:59:02;;;;;;;37.05;23.15;;;1.10;99.90;;;;;;5088826;28;20168;-46
2023/12/08 08:01:28;;;;;;;33.67;22.30;;;1.10;99.90;;;;;;5087102;28;20040;-47
2023/12/08 08:03:53;;;;;;;36.70;22.98;;;1.10;99.90;;;;;;5089128;28;20047;-46
2023/12/08 08:06:19;;;;;;;39.22;24.75;;;1.10;99.90;;;;;;5087713;28;20059;-49
2023/12/08 08:08:45;;;;;;;34.55;22.35;;;1.10;99.90;;;;;;5089190;28;20389;-48
2023/12/08 08:11:10;;;;;;;33.30;21.77;;;1.10;99.90;;;;;;5088195;28;20044;-46
2023/12/08 08:13:36;;;;;;;37.58;22.85;;;1.20;99.90;;;;;;5085893;28;20067;-45
2023/12/08 08:16:02;;;;;;;36.45;22.67;;;1.10;99.90;;;;;;5086494;28;20097;-47
2023/12/08 08:18:30;;;;;;;33.60;22.52;;;1.20;99.90;;;;;;5087599;28;20488;-46
2023/12/08 08:20:56;;;;;;;34.25;22.20;;;1.20;99.90;;;;;;5084587;28;20065;-46
2023/12/08 08:23:21;;;;;;;34.97;22.70;;;1.20;99.90;;;;;;5086281;28;20170;-46
2023/12/08 08:25:47;;;;;;;31.70;21.70;;;1.20;99.90;;;;;;5086399;28;20136;-47
2023/12/08 08:28:13;;;;;;;32.67;22.45;;;1.20;99.90;;;;;;5086193;28;20131;-46
2023/12/08 08:30:42;;;;;;;32.78;22.98;;;1.20;99.90;;;;;;5085049;28;20040;-46
2023/12/08 08:33:08;;;;;;;35.72;23.38;;;1.30;99.90;;;;;;5083760;28;20469;-46
2023/12/08 08:35:33;;;;;;;34.70;22.55;;;1.30;99.90;;;;;;5089041;28;20093;-45
2023/12/08 08:37:59;;;;;;;36.22;23.27;;;1.30;99.90;;;;;;5088134;28;20040;-46
2023/12/08 08:40:24;;;;;;;32.75;21.73;;;1.30;99.90;;;;;;5090663;28;20515;-45
2023/12/08 08:42:51;;;;;;;34.38;22.05;;;1.30;99.90;;;;;;5092659;28;20043;-45
2023/12/08 08:45:16;;;;;;;35.00;23.50;;;1.30;99.90;;;;;;5085901;28;20042;-46
2023/12/08 08:47:42;;;;;;;32.90;21.75;;;1.30;99.90;;;;;;5084399;28;20115;-48
2023/12/08 08:50:08;;;;;;;34.63;23.33;;;1.30;99.90;;;;;;5084998;28;20040;-45
2023/12/08 08:52:35;;;;;;;33.35;21.10;;;1.20;99.90;;;;;;5086276;28;20182;-45
2023/12/08 08:55:02;;;;;;;34.97;22.95;;;1.30;99.90;;;;;;5088055;28;20054;-45
2023/12/08 08:57:28;;;;;;;36.50;22.55;;;1.20;99.90;;;;;;5086168;28;20044;-46
2023/12/08 08:59:54;;;;;;;32.22;21.83;;;1.30;99.90;;;;;;5087872;28;20100;-44
2023/12/08 09:02:19;;;;;;;33.17;22.27;;;1.20;99.90;;;;;;5083857;28;20458;-46
2023/12/08 09:04:45;;;;;;;36.97;22.30;;;1.20;99.90;;;;;;5088396;28;20055;-47
2023/12/08 09:07:10;;;;;;;33.45;22.50;;;1.20;99.90;;;;;;5084515;28;20105;-45
2023/12/08 09:09:36;;;;;;;35.90;22.77;;;1.20;99.90;;;;;;5085659;28;20043;-46
2023/12/08 09:12:03;;;;;;;34.00;22.67;;;1.20;99.90;;;;;;5087056;28;20068;-47
2023/12/08 09:14:29;;;;;;;35.90;23.55;;;1.30;99.90;;;;;;5087524;28;20435;-49
2023/12/08 09:16:54;;;;;;;36.17;23.02;;;1.30;99.90;;;;;;5086191;28;20115;-45
2023/12/08 09:19:20;;;;;;;40.20;25.23;;;1.20;99.90;;;;;;5090757;28;20438;-46
2023/12/08 09:21:46;;;;;;;35.13;22.90;;;1.30;99.90;;;;;;5084737;28;20059;-46
2023/12/08 09:24:11;;;;;;;32.08;23.30;;;1.30;99.90;;;;;;5089511;28;20165;-45
2023/12/08 09:26:37;;;;;;;35.25;23.70;;;1.40;99.90;;;;;;5087820;28;20047;-46
2023/12/08 09:29:02;;;;;;;34.97;23.33;;;1.30;99.90;;;;;;5086400;28;20536;-47
2023/12/08 09:31:28;;;;;;;38.63;24.33;;;1.30;99.90;;;;;;5085128;28;20338;-48
2023/12/08 09:33:54;;;;;;;35.53;22.17;;;1.30;99.90;;;;;;5068265;28;20032;-50
2023/12/08 09:36:21;;;;;;;35.22;23.50;;;1.40;99.90;;;;;;5088400;28;20068;-46
2023/12/08 09:38:47;;;;;;;35.63;22.67;;;1.40;99.90;;;;;;5088213;28;20520;-45
2023/12/08 09:41:13;;;;;;;37.28;24.55;;;1.40;99.90;;;;;;5087405;28;20204;-45
2023/12/08 09:43:52;;;;;;;37.92;25.38;;;1.40;99.90;;;;;;5089120;28;20043;-46
2023/12/08 09:46:18;;;;;;;33.67;23.48;;;1.40;99.90;;;;;;5094678;28;20475;-47
2023/12/08 09:48:48;;;;;;;39.28;25.27;;;1.50;99.90;;;;;;5097872;28;20040;-45
2023/12/08 09:51:17;;;;;;;36.35;23.48;;;1.50;99.90;;;;;;5088690;28;20064;-46
2023/12/08 09:53:45;;;;;;;38.65;23.92;;;1.50;99.90;;;;;;5091060;28;20043;-45
2023/12/08 09:56:13;;;;;;;41.20;24.70;;;;;;;;;;5090157;28;20443;-46
2023/12/08 09:58:39;;;;;;;41.63;25.42;;;1.60;99.90;;;;;;5089223;28;20044;-49
2023/12/08 10:01:08;;;;;;;37.35;24.52;;;1.60;99.90;;;;;;5091473;28;20483;-45
2023/12/08 10:03:34;;;;;;;37.55;25.55;;;1.60;99.90;;;;;;5089765;28;20574;-46
2023/12/08 10:06:00;;;;;;;36.25;25.15;;;1.70;99.90;;;;;;5082907;28;20043;-46
2023/12/08 10:08:25;;;;;;;43.72;25.70;;;1.60;99.90;;;;;;5086450;28;20119;-46
2023/12/08 10:10:51;;;;;;;38.25;25.23;;;1.60;99.90;;;;;;5092120;28;20453;-46
2023/12/08 10:13:18;;;;;;;44.42;27.13;;;1.70;99.90;;;;;;5090581;28;20028;-45
2023/12/08 10:15:43;;;;;;;38.17;25.40;;;1.70;99.90;;;;;;5086138;28;20072;-45
2023/12/08 10:18:25;;;;;;;40.80;26.65;;;1.70;99.90;;;;;;5088006;28;20083;-45
2023/12/08 10:20:52;;;;;;;38.75;25.75;;;1.80;99.90;;;;;;5088871;28;20047;-47
2023/12/08 10:23:21;;;;;;;40.10;25.70;;;1.70;99.90;;;;;;5072915;28;20055;-45
2023/12/08 10:25:49;;;;;;;43.83;27.25;;;1.80;99.90;;;;;;5090426;28;20489;-46
2023/12/08 10:28:15;;;;;;;42.65;26.40;;;1.80;99.90;;;;;;5087876;28;20493;-46
2023/12/08 10:30:46;;;;;;;44.05;26.17;;;1.80;99.90;;;;;;5088565;28;20055;-46
2023/12/08 10:33:21;;;;;;;44.70;25.98;;;1.90;99.90;;;;;;5090807;28;20463;-44
2023/12/08 10:35:47;;;;;;;53.10;28.40;;;;;;;;;;5086154;28;20113;-45
2023/12/08 10:38:13;;;;;;;50.25;27.38;;;1.90;99.90;;;;;;5082963;28;20471;-45
2023/12/08 10:40:46;;;;;;;49.80;27.45;;;1.80;99.90;;;;;;5080121;28;20478;-46
2023/12/08 10:43:22;;;;;;;59.50;29.75;;;1.90;99.90;;;;;;5066546;28;20413;-46
2023/12/08 10:45:49;;;;;;;59.97;29.27;;;1.80;99.90;;;;;;5090131;28;20338;-45
2023/12/08 10:48:15;;;;;;;61.05;30.13;;;2.00;99.90;;;;;;5091391;28;20101;-45
2023/12/08 10:50:42;;;;;;;58.63;28.95;;;1.90;99.90;;;;;;5089534;28;20083;-46
2023/12/08 10:53:09;;;;;;;53.85;28.73;;;1.90;99.90;;;;;;5091434;28;20090;-45
2023/12/08 10:55:34;;;;;;;56.05;28.65;;;2.00;99.90;;;;;;5095378;28;20076;-45
2023/12/08 10:58:03;;;;;;;63.13;30.05;;;2.00;99.90;;;;;;5089485;28;20068;-44
2023/12/08 11:00:32;;;;;;;87.18;31.83;;;2.00;99.90;;;;;;5091091;28;20051;-45
2023/12/08 11:03:01;;;;;;;67.25;31.02;;;2.10;99.90;;;;;;5089413;28;20097;-45
2023/12/08 11:05:59;;;;;;;67.43;30.13;;;2.10;99.90;;;;;;5071450;28;20040;-46
2023/12/08 11:08:26;;;;;;;67.57;31.55;;;2.10;99.90;;;;;;5089790;28;20129;-45
2023/12/08 11:10:55;;;;;;;71.28;31.17;;;2.10;99.90;;;;;;5090126;28;20392;-46
2023/12/08 11:13:29;;;;;;;92.32;32.97;;;2.10;99.90;;;;;;5091686;28;20036;-44
2023/12/08 11:16:17;;;;;;;68.93;31.98;;;2.20;99.90;;;;;;5091535;28;20063;-45
2023/12/08 11:18:44;;;;;;;67.13;30.25;;;2.20;99.90;;;;;;5090920;28;20040;-43
2023/12/08 11:21:11;;;;;;;72.33;31.37;;;2.20;99.90;;;;;;5089675;28;20055;-46
2023/12/08 11:23:38;;;;;;;89.38;33.63;;;2.20;99.90;;;;;;5089280;28;20043;-45
2023/12/08 11:26:22;;;;;;;70.03;32.25;;;2.20;99.90;;;;;;5077069;28;20046;-44
2023/12/08 11:29:02;;;;;;;80.20;33.33;;;2.20;99.90;;;;;;5085239;28;20051;-43
2023/12/08 11:31:41;;;;;;;72.13;31.48;;;2.20;99.90;;;;;;5059294;28;20049;-44
2023/12/08 11:34:23;;;;;;;84.25;32.35;;;2.30;99.90;;;;;;5069436;28;20143;-44
2023/12/08 11:36:50;;;;;;;74.13;32.55;;;2.20;99.90;;;;;;5067575;28;20040;-43
2023/12/08 11:39:33;;;;;;;71.68;31.90;;;2.30;99.90;;;;;;5070180;28;20040;-45
2023/12/08 11:41:59;;;;;;;90.70;32.72;;;2.40;99.90;;;;;;5067881;28;20048;-43
2023/12/08 11:44:25;;;;;;;92.57;36.03;;;2.30;99.90;;;;;;5068886;28;20036;-48
2023/12/08 11:46:57;;;;;;;75.57;31.02;;;2.30;99.90;;;;;;5068920;28;20037;-47
2023/12/08 11:49:24;;;;;;;76.60;32.85;;;2.40;99.90;;;;;;5070517;28;20059;-46
2023/12/08 11:52:12;;;;;;;84.25;35.38;;;2.50;99.90;;;;;;5068904;28;20044;-43
2023/12/08 11:54:58;;;;;;;113.18;36.20;;;2.50;99.90;;;;;;5069223;28;20048;-46
2023/12/08 11:57:27;;;;;;;95.35;35.22;;;2.40;99.90;;;;;;5065612;28;20466;-45
2023/12/08 11:59:54;;;;;;;83.57;34.50;;;2.40;99.90;;;;;;5075032;28;20390;-44
2023/12/08 12:02:20;;;;;;;82.25;33.55;;;2.50;99.90;;;;;;5060960;28;20068;-44
2023/12/08 12:04:46;;;;;;;90.07;35.67;;;2.50;99.90;;;;;;5070181;28;20603;-45
2023/12/08 12:07:13;;;;;;;107.10;37.33;;;2.50;99.90;;;;;;5069578;28;20043;-45
2023/12/08 12:09:41;;;;;;;104.50;36.95;;;2.60;99.90;;;;;;5070804;28;20083;-44
2023/12/08 12:12:17;;;;;;;91.60;35.13;;;2.60;99.90;;;;;;5068786;28;20045;-46
2023/12/08 12:14:46;;;;;;;102.35;37.13;;;2.50;99.90;;;;;;5067380;28;20044;-45
2023/12/08 12:17:12;;;;;;;;;;;2.60;99.90;;;;;;5069250;28;20101;-46
2023/12/08 12:19:37;;;;;;;99.57;34.55;;;2.50;99.90;;;;;;5070499;28;20300;-46
2023/12/08 12:22:04;;;;;;;81.13;34.40;;;2.70;99.90;;;;;;5070738;28;20045;-45
2023/12/08 12:24:30;;;;;;;90.10;34.58;;;2.60;99.90;;;;;;5070754;28;20397;-45
2023/12/08 12:26:56;;;;;;;76.10;31.67;;;2.70;99.90;;;;;;5069055;28;20063;-45
2023/12/08 12:29:23;;;;;;;81.85;35.05;;;2.60;99.90;;;;;;5072798;28;20055;-44
2023/12/08 12:31:49;;;;;;;87.28;35.50;;;2.70;99.90;;;;;;5090334;28;20063;-45
2023/12/08 12:34:18;;;;;;;107.22;36.67;;;2.80;99.90;;;;;;5089523;28;20401;-43
2023/12/08 12:36:44;;;;;;;107.30;36.75;;;2.60;99.90;;;;;;5089981;28;20044;-46